createdAt,value
2018-07-27T00:01:55.107Z,100.00
2018-07-27T00:04:26.955Z,100.00
2018-07-27T00:06:58.092Z,100.00
2018-07-27T00:09:27.268Z,100.00
2018-07-27T00:11:56.457Z,100.00
2018-07-27T00:14:25.633Z,100.00
2018-07-27T00:16:55.142Z,100.00
2018-07-27T00:19:24.296Z,100.00
2018-07-27T00:21:53.531Z,100.00
2018-07-27T00:24:22.693Z,100.00
2018-07-27T00:26:51.862Z,100.00
2018-07-27T00:29:21.022Z,100.00
2018-07-27T00:31:50.182Z,100.00
2018-07-27T00:34:19.318Z,100.00
2018-07-27T00:36:48.503Z,100.00
2018-07-27T00:39:17.657Z,100.00
2018-07-27T00:41:46.788Z,100.00
2018-07-27T00:44:15.980Z,100.00
2018-07-27T00:46:45.286Z,100.00
2018-07-27T00:49:14.449Z,100.00
2018-07-27T00:51:43.624Z,100.00
2018-07-27T00:54:12.761Z,100.00
2018-07-27T00:56:41.900Z,100.00
2018-07-27T00:59:11.040Z,100.00
2018-07-27T01:01:40.253Z,100.00
2018-07-27T01:04:09.406Z,100.00
2018-07-27T01:06:38.698Z,100.00
2018-07-27T01:09:09.637Z,100.00
2018-07-27T01:11:38.971Z,100.00
2018-07-27T01:14:09.747Z,100.00
2018-07-27T01:16:38.901Z,100.00
2018-07-27T01:19:08.300Z,100.00
2018-07-27T01:21:37.552Z,100.00
2018-07-27T01:24:06.739Z,100.00
2018-07-27T01:26:35.898Z,100.00
2018-07-27T01:29:05.164Z,100.00
2018-07-27T01:31:34.419Z,100.00
2018-07-27T01:34:03.589Z,100.00
2018-07-27T01:36:32.774Z,100.00
2018-07-27T01:39:01.894Z,100.00
2018-07-27T01:41:31.070Z,100.00
2018-07-27T01:44:00.252Z,100.00
2018-07-27T01:46:29.456Z,100.00
2018-07-27T01:48:58.685Z,100.00
2018-07-27T01:51:27.974Z,100.00
2018-07-27T01:53:57.133Z,100.00
2018-07-27T01:56:26.296Z,100.00
2018-07-27T01:58:55.440Z,100.00
2018-07-27T02:01:24.612Z,100.00
2018-07-27T02:03:54.317Z,100.00
2018-07-27T02:06:23.489Z,100.00
2018-07-27T02:08:52.654Z,100.00
2018-07-27T02:11:21.832Z,100.00
2018-07-27T02:13:51.068Z,100.00
2018-07-27T02:16:20.230Z,100.00
2018-07-27T02:18:49.400Z,100.00
2018-07-27T02:21:18.574Z,100.00
2018-07-27T02:23:47.718Z,100.00
2018-07-27T02:26:16.889Z,100.00
2018-07-27T02:28:46.020Z,100.00
2018-07-27T02:31:15.257Z,100.00
2018-07-27T02:33:44.611Z,100.00
2018-07-27T02:36:13.786Z,100.00
2018-07-27T02:38:42.952Z,100.00
2018-07-27T02:41:12.107Z,100.00
2018-07-27T02:43:41.380Z,100.00
2018-07-27T02:46:10.586Z,100.00
2018-07-27T02:48:39.795Z,100.00
2018-07-27T02:51:09.132Z,100.00
2018-07-27T02:53:38.629Z,100.00
2018-07-27T02:56:07.982Z,100.00
2018-07-27T02:58:37.148Z,100.00
2018-07-27T03:01:06.780Z,100.00
2018-07-27T03:03:36.023Z,100.00
2018-07-27T03:06:05.255Z,100.00
2018-07-27T03:08:34.452Z,100.00
2018-07-27T03:11:03.674Z,100.00
2018-07-27T03:13:32.826Z,100.00
2018-07-27T03:16:02.011Z,100.00
2018-07-27T03:18:31.178Z,100.00
2018-07-27T03:21:00.333Z,100.00
2018-07-27T03:23:29.605Z,100.00
2018-07-27T03:25:58.762Z,100.00
2018-07-27T03:28:27.891Z,100.00
2018-07-27T03:30:57.117Z,100.00
2018-07-27T03:33:26.281Z,100.00
2018-07-27T03:35:55.431Z,100.00
2018-07-27T03:38:24.613Z,100.00
2018-07-27T03:40:53.792Z,100.00
2018-07-27T03:43:22.924Z,100.00
2018-07-27T03:45:52.093Z,100.00
2018-07-27T03:48:21.249Z,100.00
2018-07-27T03:50:50.493Z,100.00
2018-07-27T03:53:19.708Z,100.00
2018-07-27T03:55:48.900Z,100.00
2018-07-27T03:58:18.033Z,100.00
2018-07-27T04:00:47.198Z,100.00
2018-07-27T04:03:16.341Z,100.00
2018-07-27T04:05:45.525Z,100.00
2018-07-27T04:08:14.708Z,100.00
2018-07-27T04:10:44.428Z,100.00
2018-07-27T04:13:13.585Z,100.00
2018-07-27T04:15:42.763Z,100.00
2018-07-27T04:18:11.920Z,100.00
2018-07-27T04:20:41.160Z,100.00
2018-07-27T04:23:11.251Z,100.00
2018-07-27T04:25:40.437Z,100.00
2018-07-27T04:28:09.584Z,100.00
2018-07-27T04:30:38.703Z,100.00
2018-07-27T04:33:08.541Z,100.00
2018-07-27T04:35:37.752Z,100.00
2018-07-27T04:38:07.071Z,100.00
2018-07-27T04:40:36.275Z,100.00
2018-07-27T04:43:05.440Z,100.00
2018-07-27T04:45:34.588Z,100.00
2018-07-27T04:48:03.777Z,100.00
2018-07-27T04:50:32.901Z,100.00
2018-07-27T04:53:02.056Z,100.00
2018-07-27T04:55:31.350Z,100.00
2018-07-27T04:58:00.522Z,100.00
2018-07-27T05:00:29.668Z,100.00
2018-07-27T05:02:58.913Z,100.00
2018-07-27T05:05:28.076Z,100.00
2018-07-27T05:07:57.222Z,99.78
2018-07-27T05:10:31.677Z,99.25
2018-07-27T05:13:00.889Z,98.49
2018-07-27T05:15:30.056Z,99.07
2018-07-27T05:17:59.298Z,98.44
2018-07-27T05:20:28.465Z,98.49
2018-07-27T05:22:57.640Z,97.31
2018-07-27T05:25:26.792Z,97.50
2018-07-27T05:27:55.941Z,97.16
2018-07-27T05:30:25.183Z,96.57
2018-07-27T05:32:54.356Z,96.07
2018-07-27T05:35:23.561Z,96.47
2018-07-27T05:37:52.762Z,95.75
2018-07-27T05:40:21.966Z,94.86
2018-07-27T05:42:51.194Z,94.22
2018-07-27T05:45:20.372Z,93.04
2018-07-27T05:47:49.561Z,92.76
2018-07-27T05:50:19.305Z,91.96
2018-07-27T05:52:48.479Z,91.24
2018-07-27T05:55:17.674Z,91.53
2018-07-27T05:57:46.804Z,91.44
2018-07-27T06:00:15.993Z,91.74
2018-07-27T06:02:45.584Z,91.05
2018-07-27T06:05:14.663Z,93.99
2018-07-27T06:07:43.852Z,94.05
2018-07-27T06:10:13.126Z,95.07
2018-07-27T06:12:42.292Z,94.06
2018-07-27T06:15:11.693Z,93.75
2018-07-27T06:17:40.875Z,93.90
2018-07-27T06:20:10.272Z,93.94
2018-07-27T06:22:39.397Z,92.27
2018-07-27T06:25:08.742Z,92.85
2018-07-27T06:27:37.924Z,93.77
2018-07-27T06:30:07.233Z,93.13
2018-07-27T06:32:36.329Z,92.24
2018-07-27T06:35:05.501Z,92.75
2018-07-27T06:37:34.698Z,91.58
2018-07-27T06:40:03.995Z,92.41
2018-07-27T06:42:33.145Z,92.71
2018-07-27T06:45:02.337Z,91.01
2018-07-27T06:47:31.524Z,90.04
2018-07-27T06:50:01.557Z,89.95
2018-07-27T06:52:30.706Z,88.65
2018-07-27T06:54:59.885Z,87.96
2018-07-27T06:57:29.090Z,87.52
2018-07-27T06:59:59.152Z,87.54
2018-07-27T07:02:28.889Z,87.71
2018-07-27T07:04:58.066Z,88.05
2018-07-27T07:07:27.189Z,84.49
2018-07-27T07:09:56.568Z,83.19
2018-07-27T07:12:25.737Z,83.87
2018-07-27T07:14:54.901Z,83.27
2018-07-27T07:17:24.091Z,83.08
2018-07-27T07:19:53.270Z,82.40
2018-07-27T07:22:22.555Z,83.32
2018-07-27T07:24:51.733Z,82.72
2018-07-27T07:27:20.896Z,81.30
2018-07-27T07:29:50.039Z,80.56
2018-07-27T07:32:19.296Z,80.83
2018-07-27T07:34:48.449Z,79.58
2018-07-27T07:37:19.032Z,80.16
2018-07-27T07:39:48.177Z,76.40
2018-07-27T07:42:17.351Z,76.52
2018-07-27T07:44:46.635Z,76.42
2018-07-27T07:47:15.958Z,78.30
2018-07-27T07:49:45.127Z,76.57
2018-07-27T07:52:14.269Z,77.39
2018-07-27T07:54:43.446Z,76.21
2018-07-27T07:57:12.648Z,78.27
2018-07-27T07:59:41.835Z,76.91
2018-07-27T08:02:11.016Z,76.50
2018-07-27T08:04:40.169Z,73.93
2018-07-27T08:07:09.435Z,73.32
2018-07-27T08:09:38.638Z,75.00
2018-07-27T08:12:07.826Z,73.89
2018-07-27T08:14:36.994Z,74.62
2018-07-27T08:17:06.261Z,72.23
2018-07-27T08:19:35.397Z,72.71
2018-07-27T08:22:04.586Z,70.46
2018-07-27T08:24:33.898Z,71.78
2018-07-27T08:27:05.131Z,70.25
2018-07-27T08:29:41.654Z,70.98
2018-07-27T08:32:10.886Z,70.20
2018-07-27T08:34:40.132Z,69.50
2018-07-27T08:37:09.785Z,70.48
2018-07-27T08:39:41.269Z,68.70
2018-07-27T08:42:10.493Z,70.17
2018-07-27T08:44:40.937Z,69.40
2018-07-27T08:47:10.128Z,68.98
2018-07-27T08:49:39.304Z,70.33
2018-07-27T08:52:08.527Z,68.85
2018-07-27T08:54:37.669Z,69.94
2018-07-27T08:57:07.013Z,66.43
2018-07-27T08:59:36.205Z,66.46
2018-07-27T09:02:05.661Z,68.67
2018-07-27T09:04:34.854Z,66.14
2018-07-27T09:07:05.073Z,65.26
2018-07-27T09:09:34.273Z,66.39
2018-07-27T09:12:03.858Z,63.67
2018-07-27T09:14:33.060Z,66.63
2018-07-27T09:17:02.224Z,64.16
2018-07-27T09:19:31.522Z,65.42
2018-07-27T09:22:00.753Z,61.76
2018-07-27T09:24:30.150Z,62.24
2018-07-27T09:26:59.122Z,60.35
2018-07-27T09:29:28.300Z,61.80
2018-07-27T09:31:57.451Z,61.39
2018-07-27T09:34:26.613Z,57.50
2018-07-27T09:36:55.724Z,57.81
2018-07-27T09:39:24.880Z,57.66
2018-07-27T09:41:54.013Z,57.33
2018-07-27T09:44:23.196Z,58.88
2018-07-27T09:46:52.369Z,57.10
2018-07-27T09:49:21.517Z,60.91
2018-07-27T09:51:50.672Z,59.30
2018-07-27T09:54:19.817Z,56.58
2018-07-27T09:56:49.128Z,55.40
2018-07-27T09:59:18.294Z,53.72
2018-07-27T10:01:47.421Z,54.50
2018-07-27T10:04:16.594Z,59.16
2018-07-27T10:06:45.722Z,55.78
2018-07-27T10:09:14.862Z,56.74
2018-07-27T10:11:44.047Z,56.82
2018-07-27T10:14:13.187Z,53.79
2018-07-27T10:16:42.369Z,56.06
2018-07-27T10:19:11.503Z,54.72
2018-07-27T10:21:40.642Z,53.66
2018-07-27T10:24:13.514Z,55.98
2018-07-27T10:26:42.581Z,56.44
2018-07-27T10:29:11.707Z,56.81
2018-07-27T10:31:40.998Z,53.70
2018-07-27T10:34:10.151Z,56.01
2018-07-27T10:36:39.279Z,54.25
2018-07-27T10:39:10.867Z,54.24
2018-07-27T10:41:40.099Z,55.00
2018-07-27T10:44:09.290Z,55.58
2018-07-27T10:46:38.488Z,53.46
2018-07-27T10:49:07.850Z,53.56
2018-07-27T10:51:37.029Z,54.23
2018-07-27T10:54:07.287Z,54.09
2018-07-27T10:56:36.542Z,53.12
2018-07-27T10:59:05.898Z,53.87
2018-07-27T11:01:35.101Z,51.37
2018-07-27T11:04:06.097Z,55.47
2018-07-27T11:06:35.290Z,53.67
2018-07-27T11:09:06.485Z,50.46
2018-07-27T11:11:36.413Z,51.58
2018-07-27T11:14:05.616Z,51.14
2018-07-27T11:16:34.831Z,52.33
2018-07-27T11:19:03.982Z,53.42
2018-07-27T11:21:33.132Z,50.99
2018-07-27T11:24:02.319Z,50.61
2018-07-27T11:26:31.530Z,50.66
2018-07-27T11:29:00.692Z,51.95
2018-07-27T11:31:29.844Z,52.51
2018-07-27T11:33:59.228Z,51.02
2018-07-27T11:36:28.397Z,52.90
2018-07-27T11:38:57.552Z,52.10
2018-07-27T11:41:26.751Z,52.37
2018-07-27T11:43:55.880Z,52.59
2018-07-27T11:46:25.045Z,51.24
2018-07-27T11:48:54.168Z,50.81
2018-07-27T11:51:23.432Z,51.36
2018-07-27T11:53:52.619Z,50.60
2018-07-27T11:56:21.831Z,50.58
2018-07-27T11:58:51.041Z,51.20
2018-07-27T12:01:20.632Z,50.33
2018-07-27T12:03:50.211Z,49.48
2018-07-27T12:06:19.508Z,48.71
2018-07-27T12:08:48.684Z,47.92
2018-07-27T12:11:17.870Z,49.17
2018-07-27T12:13:47.122Z,49.10
2018-07-27T12:16:16.269Z,46.68
2018-07-27T12:18:45.477Z,45.51
2018-07-27T12:21:14.733Z,48.48
2018-07-27T12:23:43.834Z,45.55
2018-07-27T12:26:12.961Z,48.83
2018-07-27T12:28:42.601Z,48.46
2018-07-27T12:31:11.973Z,46.04
2018-07-27T12:33:41.098Z,47.97
2018-07-27T12:36:10.263Z,46.27
2018-07-27T12:38:39.424Z,45.65
2018-07-27T12:41:08.773Z,51.59
2018-07-27T12:43:37.993Z,49.11
2018-07-27T12:46:07.200Z,46.96
2018-07-27T12:48:36.360Z,48.01
2018-07-27T12:51:05.578Z,49.87
2018-07-27T12:53:34.977Z,48.98
2018-07-27T12:56:04.105Z,47.63
2018-07-27T12:58:33.316Z,46.31
2018-07-27T13:01:02.825Z,46.89
2018-07-27T13:03:31.997Z,47.18
2018-07-27T13:06:01.156Z,47.90
2018-07-27T13:08:30.323Z,48.14
2018-07-27T13:10:59.653Z,47.50
2018-07-27T13:13:28.798Z,49.14
2018-07-27T13:15:58.024Z,47.44
2018-07-27T13:18:27.157Z,47.23
2018-07-27T13:20:57.193Z,49.15
2018-07-27T13:23:26.386Z,48.29
2018-07-27T13:28:44.725Z,50.79
2018-07-27T13:31:14.057Z,49.20
2018-07-27T13:34:01.089Z,49.65
2018-07-27T13:36:30.257Z,53.09
2018-07-27T13:38:59.421Z,53.32
2018-07-27T13:41:28.611Z,53.03
2018-07-27T13:43:57.809Z,52.08
2018-07-27T13:46:26.961Z,53.25
2018-07-27T13:49:00.040Z,54.36
2018-07-27T13:51:29.482Z,53.05
2018-07-27T13:53:58.576Z,54.05
2018-07-27T13:56:27.718Z,56.46
2018-07-27T13:58:56.925Z,53.94
2018-07-27T14:01:26.056Z,52.67
2018-07-27T14:03:55.226Z,52.05
2018-07-27T14:06:24.356Z,51.98
2018-07-27T14:08:53.477Z,50.54
2018-07-27T14:11:22.657Z,49.42
2018-07-27T14:13:51.767Z,51.53
2018-07-27T14:16:20.936Z,54.89
2018-07-27T14:18:50.092Z,56.54
2018-07-27T14:21:19.303Z,56.55
2018-07-27T14:23:48.486Z,56.28
2018-07-27T14:26:17.634Z,63.65
2018-07-27T14:28:46.773Z,67.85
2018-07-27T14:31:15.951Z,62.23
2018-07-27T14:33:45.285Z,62.67
2018-07-27T14:36:14.420Z,63.60
2018-07-27T14:38:43.589Z,64.69
2018-07-27T14:41:12.782Z,67.15
2018-07-27T14:43:41.990Z,65.57
2018-07-27T14:46:11.156Z,65.18
2018-07-27T14:48:40.337Z,62.73
2018-07-27T14:51:09.482Z,60.52
2018-07-27T14:53:38.619Z,62.17
2018-07-27T14:56:07.862Z,61.60
2018-07-27T14:58:37.104Z,62.17
2018-07-27T15:01:06.405Z,61.46
2018-07-27T15:03:35.690Z,61.29
2018-07-27T15:06:04.869Z,57.29
2018-07-27T15:08:33.985Z,61.09
2018-07-27T15:11:03.192Z,60.23
2018-07-27T15:13:32.318Z,61.68
2018-07-27T15:16:01.478Z,59.14
2018-07-27T15:18:30.613Z,59.82
2018-07-27T15:20:59.751Z,56.59
2018-07-27T15:23:28.898Z,56.78
2018-07-27T15:25:58.100Z,58.37
2018-07-27T15:28:27.225Z,58.22
2018-07-27T15:30:56.408Z,55.44
2018-07-27T15:33:25.573Z,56.59
2018-07-27T15:35:54.794Z,55.26
2018-07-27T15:38:23.945Z,55.63
2018-07-27T15:40:53.201Z,56.13
2018-07-27T15:43:22.353Z,55.17
2018-07-27T15:45:51.521Z,55.75
2018-07-27T15:48:20.715Z,54.91
2018-07-27T15:50:49.859Z,54.47
2018-07-27T15:53:18.987Z,56.06
2018-07-27T15:55:48.176Z,60.49
2018-07-27T15:58:17.275Z,58.84
2018-07-27T16:00:46.444Z,61.08
2018-07-27T16:03:15.640Z,62.46
2018-07-27T16:05:44.772Z,60.22
2018-07-27T16:08:13.919Z,59.69
2018-07-27T16:10:43.067Z,59.76
2018-07-27T16:13:12.266Z,62.43
2018-07-27T16:15:41.421Z,63.01
2018-07-27T16:18:10.661Z,61.92
2018-07-27T16:20:39.902Z,61.01
2018-07-27T16:23:09.237Z,58.37
2018-07-27T16:25:38.863Z,58.43
2018-07-27T16:28:08.012Z,58.29
2018-07-27T16:30:37.134Z,59.15
2018-07-27T16:33:06.465Z,59.74
2018-07-27T16:35:35.603Z,58.76
2018-07-27T16:38:04.799Z,59.30
2018-07-27T16:40:33.976Z,59.77
2018-07-27T16:43:03.160Z,59.03
2018-07-27T16:45:32.312Z,59.37
2018-07-27T16:48:01.599Z,59.40
2018-07-27T16:50:30.770Z,57.29
2018-07-27T16:53:00.047Z,57.46
2018-07-27T16:55:29.254Z,57.19
2018-07-27T16:57:58.377Z,57.80
2018-07-27T17:00:27.600Z,59.20
2018-07-27T17:02:56.727Z,59.56
2018-07-27T17:05:25.860Z,59.99
2018-07-27T17:07:54.981Z,60.54
2018-07-27T17:10:24.135Z,61.81
2018-07-27T17:12:53.291Z,62.94
2018-07-27T17:15:22.440Z,63.64
2018-07-27T17:17:51.632Z,64.40
2018-07-27T17:20:20.839Z,64.96
2018-07-27T17:22:50.198Z,67.56
2018-07-27T17:25:19.560Z,68.78
2018-07-27T17:27:50.225Z,69.22
2018-07-27T17:30:19.390Z,69.68
2018-07-27T17:32:48.666Z,69.92
2018-07-27T17:35:17.781Z,69.44
2018-07-27T17:37:46.913Z,70.05
2018-07-27T17:40:16.136Z,72.08
2018-07-27T17:42:45.336Z,71.26
2018-07-27T17:45:14.474Z,72.31
2018-07-27T17:47:43.631Z,72.63
2018-07-27T17:50:12.916Z,73.94
2018-07-27T17:52:42.056Z,73.59
2018-07-27T17:55:11.462Z,72.76
2018-07-27T17:57:40.736Z,72.98
2018-07-27T18:00:10.021Z,72.59
2018-07-27T18:02:39.457Z,73.95
2018-07-27T18:05:08.967Z,75.14
2018-07-27T18:07:38.303Z,75.63
2018-07-27T18:10:07.502Z,76.01
2018-07-27T18:12:36.666Z,76.37
2018-07-27T18:15:06.057Z,76.67
2018-07-27T18:17:35.258Z,77.11
2018-07-27T18:20:05.680Z,76.84
2018-07-27T18:22:35.259Z,76.78
2018-07-27T18:25:05.547Z,76.94
2018-07-27T18:27:34.681Z,77.00
2018-07-27T18:30:03.972Z,77.52
2018-07-27T18:32:33.149Z,77.40
2018-07-27T18:35:02.301Z,78.31
2018-07-27T18:37:31.437Z,79.45
2018-07-27T18:40:00.615Z,79.86
2018-07-27T18:42:29.818Z,81.81
2018-07-27T18:44:59.020Z,83.68
2018-07-27T18:47:28.769Z,84.92
2018-07-27T18:49:58.465Z,84.76
2018-07-27T18:52:27.653Z,84.80
2018-07-27T18:54:56.867Z,85.65
2018-07-27T18:57:25.998Z,85.85
2018-07-27T18:59:55.197Z,86.38
2018-07-27T19:02:24.410Z,86.70
2018-07-27T19:04:53.585Z,86.17
2018-07-27T19:07:22.819Z,87.11
2018-07-27T19:09:52.072Z,87.71
2018-07-27T19:12:21.215Z,88.23
2018-07-27T19:14:50.427Z,89.24
2018-07-27T19:17:19.712Z,88.81
2018-07-27T19:19:49.009Z,89.74
2018-07-27T19:22:18.184Z,90.58
2018-07-27T19:24:47.355Z,90.68
2018-07-27T19:27:16.565Z,91.35
2018-07-27T19:29:45.879Z,92.70
2018-07-27T19:32:15.053Z,92.55
2018-07-27T19:34:44.226Z,93.68
2018-07-27T19:37:13.372Z,95.59
2018-07-27T19:39:42.548Z,95.54
2018-07-27T19:42:11.719Z,95.68
2018-07-27T19:44:40.939Z,95.48
2018-07-27T19:47:11.128Z,95.14
2018-07-27T19:49:40.328Z,95.53
2018-07-27T19:52:09.564Z,95.92
2018-07-27T19:54:38.881Z,95.74
2018-07-27T19:57:08.217Z,94.82
2018-07-27T19:59:37.365Z,95.20
2018-07-27T20:02:06.645Z,95.47
2018-07-27T20:04:35.802Z,95.26
2018-07-27T20:07:05.189Z,96.62
2018-07-27T20:09:34.409Z,97.14
2018-07-27T20:12:03.625Z,96.64
2018-07-27T20:14:32.787Z,97.11
2018-07-27T20:17:02.498Z,97.04
2018-07-27T20:19:33.074Z,97.79
2018-07-27T20:22:02.269Z,97.52
2018-07-27T20:24:31.417Z,98.26
2018-07-27T20:27:00.553Z,98.42
2018-07-27T20:29:29.776Z,98.62
2018-07-27T20:31:58.948Z,97.74
2018-07-27T20:34:28.085Z,96.56
2018-07-27T20:36:57.298Z,96.75
2018-07-27T20:39:26.499Z,97.05
2018-07-27T20:41:55.660Z,96.83
2018-07-27T20:44:24.841Z,97.41
2018-07-27T20:46:54.027Z,96.87
2018-07-27T20:49:23.186Z,97.13
2018-07-27T20:51:52.366Z,97.85
2018-07-27T20:54:21.591Z,98.40
2018-07-27T20:56:50.785Z,99.23
2018-07-27T20:59:19.921Z,100.00
2018-07-27T21:01:49.257Z,98.96
2018-07-27T21:04:18.487Z,98.71
2018-07-27T21:06:47.602Z,97.59
2018-07-27T21:09:16.768Z,94.42
2018-07-27T21:11:45.930Z,93.31
2018-07-27T21:14:15.066Z,92.71
2018-07-27T21:16:44.266Z,91.56
2018-07-27T21:19:14.101Z,92.12
2018-07-27T21:21:43.580Z,91.27
2018-07-27T21:24:12.731Z,92.06
2018-07-27T21:26:42.504Z,91.46
2018-07-27T21:29:11.831Z,92.50
2018-07-27T21:31:41.198Z,92.77
2018-07-27T21:34:10.377Z,92.08
2018-07-27T21:36:39.626Z,92.47
2018-07-27T21:39:11.424Z,91.67
2018-07-27T21:41:40.602Z,90.66
2018-07-27T21:44:09.841Z,90.50
2018-07-27T21:46:39.185Z,89.73
2018-07-27T21:49:08.457Z,89.54
2018-07-27T21:51:37.673Z,89.21
2018-07-27T21:54:07.744Z,89.27
2018-07-27T21:56:36.890Z,88.95
2018-07-27T21:59:06.134Z,89.53
2018-07-27T22:01:35.314Z,89.15
2018-07-27T22:04:04.470Z,89.30
2018-07-27T22:06:33.620Z,89.73
2018-07-27T22:09:03.023Z,90.30
2018-07-27T22:11:32.189Z,89.86
2018-07-27T22:14:01.344Z,89.84
2018-07-27T22:16:30.525Z,89.82
2018-07-27T22:18:59.748Z,89.95
2018-07-27T22:21:28.873Z,90.63
2018-07-27T22:23:58.091Z,91.13
2018-07-27T22:26:27.709Z,90.72
2018-07-27T22:28:56.860Z,90.77
2018-07-27T22:31:26.102Z,91.55
2018-07-27T22:33:55.566Z,91.21
2018-07-27T22:36:24.826Z,91.37
2018-07-27T22:38:53.994Z,91.67
2018-07-27T22:41:23.241Z,91.80
2018-07-27T22:43:52.361Z,92.35
2018-07-27T22:46:21.608Z,92.09
2018-07-27T22:48:50.776Z,92.57
2018-07-27T22:51:20.225Z,92.67
2018-07-27T22:53:49.383Z,92.82
2018-07-27T22:56:20.148Z,93.07
2018-07-27T22:58:49.356Z,92.58
2018-07-27T23:01:18.683Z,92.13
2018-07-27T23:03:47.809Z,92.51
2018-07-27T23:06:16.976Z,92.89
2018-07-27T23:08:46.221Z,93.10
2018-07-27T23:11:15.372Z,93.90
2018-07-27T23:13:44.573Z,93.77
2018-07-27T23:16:13.769Z,94.34
2018-07-27T23:18:42.961Z,93.90
2018-07-27T23:21:12.142Z,95.09
2018-07-27T23:23:41.352Z,95.44
2018-07-27T23:26:10.497Z,95.54
2018-07-27T23:28:40.748Z,95.75
2018-07-27T23:31:10.006Z,95.59
2018-07-27T23:33:39.253Z,96.05
2018-07-27T23:36:08.407Z,96.39
2018-07-27T23:38:37.590Z,96.72
2018-07-27T23:41:06.922Z,96.22
2018-07-27T23:43:36.072Z,96.07
2018-07-27T23:46:05.284Z,96.26
2018-07-27T23:48:34.571Z,97.59
2018-07-27T23:51:03.717Z,97.51
2018-07-27T23:53:32.966Z,97.65
2018-07-27T23:56:02.140Z,97.92
2018-07-27T23:58:31.497Z,98.83
